ADDS METAR Data INFO
IDs: Format: Raw Decoded Include TAF

Data at: 1049 UTC 20 Sep 2017

KALI 200953Z AUTO 15006KT 9SM FEW020 26/24 A2986 RMK AO2 SLP109 T02560244
KALI 200853Z AUTO 16008KT 10SM CLR 26/24 A2986 RMK AO2 SLP108 T02610244 58000
KALI 200837Z AUTO 17007KT 10SM SCT015 26/24 A2986 RMK AO2 T02610244
KALI 200826Z AUTO 17008KT 10SM BKN015 BKN022 26/24 A2986 RMK AO2 T02610244
KALI 200753Z AUTO 16007KT 10SM SCT016 27/24 A2987 RMK AO2 SLP110 T02670244
KALI 200734Z AUTO 16006KT 10SM BKN015 27/24 A2987 RMK AO2 T02670244
KALI 200653Z AUTO 13003KT 9SM OVC013 27/24 A2987 RMK AO2 SLP112 T02670244
KALI 200609Z AUTO 16005KT 10SM BKN013 27/24 A2987 RMK AO2 T02670244
KALI 200553Z AUTO 17006KT 10SM FEW013 27/24 A2986 RMK AO2 SLP109 T02670244 10311 20267 403720233 52009
KALI 200453Z AUTO 17013KT 10SM CLR 27/24 A2985 RMK AO2 SLP106 T02720244
KALI 200353Z AUTO 15010KT 10SM CLR 27/24 A2984 RMK AO2 SLP102 T02670244
KALI 200253Z AUTO 14013KT 10SM CLR 28/24 A2983 RMK AO2 SLP099 T02780239 50007
KALI 200153Z AUTO 13009KT 10SM CLR 28/23 A2986 RMK AO2 SLP110 T02830233
KALI 200053Z AUTO 12012KT 10SM CLR 29/22 A2984 RMK AO2 SLP103 T02940222
KALI 192353Z AUTO 13014G21KT 10SM CLR 31/22 A2981 RMK AO2 SLP092 T03110222 10372 20311 53002
KALI 192253Z AUTO 14018G23KT 10SM CLR 33/23 A2979 RMK AO2 SLP085 T03280228
KALI 192153Z AUTO 13013G22KT 10SM FEW047 SCT055 34/23 A2980 RMK AO2 SLP087 T03390228
KALI 192053Z AUTO 14014G23KT 10SM SCT050 SCT070 BKN095 35/22 A2980 RMK AO2 SLP090 T03500222 56031
KALI 191953Z AUTO 14012G17KT 10SM SCT050 SCT060 BKN080 35/22 A2983 RMK AO2 SLP098 T03500217
KALI 191853Z AUTO 10SM SCT048 BKN060 36/22 A2986 RMK AO2 SLP108 T03610217
KALI 191753Z AUTO 19010G16KT 10SM BKN047 BKN110 34/21 A2990 RMK AO2 SLP121 T03440211 10350 20233 58015
KALI 191653Z AUTO 19009KT 10SM FEW038 33/22 A2992 RMK AO2 SLP129 T03330222
KALI 191553Z AUTO 17009KT 10SM FEW027 32/23 A2993 RMK AO2 SLP132 T03170233
KALI 191536Z AUTO 16011G19KT 10SM SCT023 BKN030 31/23 A2993 RMK AO2 T03110233
KALI 191528Z AUTO 15013KT 10SM FEW016 BKN023 BKN030 31/23 A2993 RMK AO2 T03110233
KALI 191500Z AUTO 17011KT 10SM FEW014 SCT020 29/24 A2994 RMK AO2 T02890244
KALI 191453Z AUTO 18012KT 10SM SCT014 BKN026 28/24 A2994 RMK AO2 SLP135 T02830244 51010
KALI 191433Z AUTO 16010KT 10SM BKN012 BKN023 OVC028 28/25 A2994 RMK AO2 T02830250
KALI 191404Z AUTO 17009KT 9SM FEW009 SCT017 BKN027 27/25 A2994 RMK AO2 T02720250
KALI 191353Z AUTO 15009KT 6SM BR SCT017 27/25 A2993 RMK AO2 SLP134 T02670250
KALI 191329Z AUTO 15006KT 4SM BR SCT014 26/25 A2993 RMK AO2 T02560250
KALI 191320Z AUTO 15006KT 3SM BR BKN016 BKN022 25/25 A2993 RMK AO2 T02500250
KALI 191305Z AUTO 15005KT 2SM BR BKN018 BKN026 25/24 A2992 RMK AO2 T02500244
KALI 191253Z AUTO 15005KT 1 3/4SM BR BKN018 BKN023 24/24 A2992 RMK AO2 SLP130 T02440239
KALI 191241Z AUTO 15004KT 1SM BR VV017 24/23 A2992 RMK AO2 T02390233
KALI 191235Z AUTO 15004KT 1/2SM FG VV015 24/23 A2992 RMK AO2 T02390233
KALI 191231Z AUTO 14004KT 3/4SM BR VV013 23/23 A2991 RMK AO2 T02330233
KALI 191225Z AUTO 15005KT 1 1/4SM BR SCT012 23/23 A2991 RMK AO2 T02330233
KALI 191208Z AUTO 16003KT 1SM BR VV012 24/24 A2991 RMK AO2 T02390239
KALI 191153Z AUTO 00000KT 1 3/4SM BR CLR 24/24 A2991 RMK AO2 SLP125 T02440239 10267 20244 53006
KALI 191151Z AUTO 00000KT 1 3/4SM BR CLR 24/24 A2991 RMK AO2
KALI 191053Z AUTO 18004KT 5SM BR FEW013 25/24 A2990 RMK AO2 SLP121 T02500244
KALI 190953Z AUTO 19006KT 6SM BR CLR 26/24 A2989 RMK AO2 SLP120 T02560244
KALI 190853Z AUTO 17005KT 6SM BR CLR 26/24 A2989 RMK AO2 SLP118 T02560244 58005
KALI 190753Z AUTO 17010KT 7SM CLR 26/25 A2990 RMK AO2 SLP122 T02610250
KALI 190653Z AUTO 15006KT 7SM FEW013 26/25 A2991 RMK AO2 SLP126 T02610250
KALI 190553Z AUTO 14006KT 7SM FEW016 27/25 A2991 RMK AO2 SLP125 T02670250 10317 20267 403670233 58004
KALI 190453Z AUTO 15010KT 8SM CLR 27/25 A2991 RMK AO2 SLP127 T02720250
KALI 190353Z AUTO 14010KT 10SM CLR 28/24 A2992 RMK AO2 SLP129 T02780244
KALI 190253Z AUTO 13010KT 10SM CLR 28/24 A2992 RMK AO2 SLP129 T02830244 53019
KALI 190153Z AUTO 14011KT 10SM CLR 28/23 A2990 RMK AO2 SLP121 T02830233
KALI 190053Z AUTO 14015KT 10SM CLR 29/22 A2987 RMK AO2 SLP113 T02940222
KALI 182353Z AUTO 15014KT 10SM CLR 32/21 A2986 RMK AO2 SLP109 T03170206 10367 20317 55004
KALI 182253Z AUTO 13017G23KT 10SM CLR 34/22 A2986 RMK AO2 SLP107 T03390222